sensor_id;sensor_type;location;lat;lon;timestamp;pressure;altitude;pressure_sealevel;temperature;humidity
5522;BME280;2783;48.730;8.006;2023-05-24T00:01:32;100417.94;;;16.54;67.19
5522;BME280;2783;48.730;8.006;2023-05-24T00:03:58;100408.09;;;16.55;67.11
5522;BME280;2783;48.730;8.006;2023-05-24T00:06:27;100407.22;;;16.54;67.33
5522;BME280;2783;48.730;8.006;2023-05-24T00:08:52;100407.69;;;16.45;65.83
5522;BME280;2783;48.730;8.006;2023-05-24T00:11:18;100409.47;;;16.45;66.40
5522;BME280;2783;48.730;8.006;2023-05-24T00:13:43;100416.72;;;16.43;66.18
5522;BME280;2783;48.730;8.006;2023-05-24T00:16:09;100407.25;;;16.36;66.27
5522;BME280;2783;48.730;8.006;2023-05-24T00:18:34;100405.34;;;16.38;66.21
5522;BME280;2783;48.730;8.006;2023-05-24T00:21:08;100405.34;;;16.38;65.69
5522;BME280;2783;48.730;8.006;2023-05-24T00:23:33;100402.56;;;16.39;66.89
5522;BME280;2783;48.730;8.006;2023-05-24T00:26:01;100412.63;;;16.36;65.88
5522;BME280;2783;48.730;8.006;2023-05-24T00:28:26;100408.97;;;16.37;66.14
5522;BME280;2783;48.730;8.006;2023-05-24T00:30:51;100409.72;;;16.40;66.59
5522;BME280;2783;48.730;8.006;2023-05-24T00:33:17;100414.34;;;16.37;65.85
5522;BME280;2783;48.730;8.006;2023-05-24T00:35:42;100408.97;;;16.37;66.24
5522;BME280;2783;48.730;8.006;2023-05-24T00:38:07;100409.78;;;16.39;65.54
5522;BME280;2783;48.730;8.006;2023-05-24T00:40:33;100406.94;;;16.42;66.22
5522;BME280;2783;48.730;8.006;2023-05-24T00:42:58;100403.28;;;16.43;66.61
5522;BME280;2783;48.730;8.006;2023-05-24T00:45:23;100394.44;;;16.41;65.88
5522;BME280;2783;48.730;8.006;2023-05-24T00:47:48;100396.13;;;16.43;66.29
5522;BME280;2783;48.730;8.006;2023-05-24T00:50:14;100400.69;;;16.41;66.89
5522;BME280;2783;48.730;8.006;2023-05-24T00:52:41;100392.88;;;16.37;66.71
5522;BME280;2783;48.730;8.006;2023-05-24T00:55:07;100396.09;;;16.26;66.95
5522;BME280;2783;48.730;8.006;2023-05-24T00:57:33;100391.75;;;16.24;68.30
5522;BME280;2783;48.730;8.006;2023-05-24T00:59:59;100390.22;;;16.18;67.81
5522;BME280;2783;48.730;8.006;2023-05-24T01:02:25;100398.91;;;16.06;69.24
5522;BME280;2783;48.730;8.006;2023-05-24T01:04:50;100384.97;;;15.98;68.88
5522;BME280;2783;48.730;8.006;2023-05-24T01:08:18;100387.06;;;15.92;69.47
5522;BME280;2783;48.730;8.006;2023-05-24T01:10:16;100386.56;;;15.83;70.09
5522;BME280;2783;48.730;8.006;2023-05-24T01:13:14;100383.69;;;15.69;71.38
5522;BME280;2783;48.730;8.006;2023-05-24T01:18:30;100385.88;;;15.61;71.98
5522;BME280;2783;48.730;8.006;2023-05-24T01:21:13;100387.09;;;15.54;70.94
5522;BME280;2783;48.730;8.006;2023-05-24T01:23:48;100382.81;;;15.50;71.72
5522;BME280;2783;48.730;8.006;2023-05-24T01:26:18;100385.88;;;15.43;72.51
5522;BME280;2783;48.730;8.006;2023-05-24T01:28:46;100383.38;;;15.38;73.35
5522;BME280;2783;48.730;8.006;2023-05-24T01:31:13;100387.41;;;15.28;73.50
5522;BME280;2783;48.730;8.006;2023-05-24T01:33:42;100378.50;;;15.28;74.52
5522;BME280;2783;48.730;8.006;2023-05-24T01:36:07;100376.84;;;15.25;73.60
5522;BME280;2783;48.730;8.006;2023-05-24T01:38:32;100395.72;;;15.22;74.21
5522;BME280;2783;48.730;8.006;2023-05-24T01:41:00;100378.94;;;15.19;73.93
5522;BME280;2783;48.730;8.006;2023-05-24T01:43:33;100387.97;;;15.16;73.31
5522;BME280;2783;48.730;8.006;2023-05-24T01:48:47;100387.28;;;15.11;75.16
5522;BME280;2783;48.730;8.006;2023-05-24T01:51:18;100388.25;;;15.10;75.12
5522;BME280;2783;48.730;8.006;2023-05-24T01:53:46;100387.44;;;15.08;75.79
5522;BME280;2783;48.730;8.006;2023-05-24T01:56:13;100395.75;;;15.02;75.34
5522;BME280;2783;48.730;8.006;2023-05-24T01:58:40;100400.09;;;15.05;74.82
5522;BME280;2783;48.730;8.006;2023-05-24T02:01:06;100397.34;;;15.06;75.43
5522;BME280;2783;48.730;8.006;2023-05-24T02:03:32;100401.97;;;15.03;75.25
5522;BME280;2783;48.730;8.006;2023-05-24T02:05:57;100394.22;;;14.97;74.41
5522;BME280;2783;48.730;8.006;2023-05-24T02:08:23;100402.19;;;14.98;73.86
5522;BME280;2783;48.730;8.006;2023-05-24T02:10:49;100396.69;;;15.01;74.38
5522;BME280;2783;48.730;8.006;2023-05-24T02:13:14;100411.69;;;15.05;75.31
5522;BME280;2783;48.730;8.006;2023-05-24T02:15:42;100404.31;;;15.10;74.94
5522;BME280;2783;48.730;8.006;2023-05-24T02:18:08;100408.59;;;15.14;74.01
5522;BME280;2783;48.730;8.006;2023-05-24T02:20:35;100401.50;;;15.13;73.87
5522;BME280;2783;48.730;8.006;2023-05-24T02:23:01;100405.75;;;15.17;73.36
5522;BME280;2783;48.730;8.006;2023-05-24T02:25:27;100407.16;;;15.26;73.51
5522;BME280;2783;48.730;8.006;2023-05-24T02:27:52;100412.59;;;15.24;72.56
5522;BME280;2783;48.730;8.006;2023-05-24T02:30:17;100405.50;;;15.23;72.87
5522;BME280;2783;48.730;8.006;2023-05-24T02:32:42;100409.78;;;15.27;72.74
5522;BME280;2783;48.730;8.006;2023-05-24T02:35:08;100410.44;;;15.32;73.39
5522;BME280;2783;48.730;8.006;2023-05-24T02:37:33;100410.28;;;15.35;72.31
5522;BME280;2783;48.730;8.006;2023-05-24T02:39:58;100409.19;;;15.41;72.63
5522;BME280;2783;48.730;8.006;2023-05-24T02:42:24;100404.94;;;15.35;71.76
5522;BME280;2783;48.730;8.006;2023-05-24T02:44:49;100400.59;;;15.33;72.12
5522;BME280;2783;48.730;8.006;2023-05-24T02:47:16;100407.97;;;15.28;71.34
5522;BME280;2783;48.730;8.006;2023-05-24T02:49:42;100408.41;;;15.37;71.52
5522;BME280;2783;48.730;8.006;2023-05-24T02:52:07;100407.38;;;15.41;72.40
5522;BME280;2783;48.730;8.006;2023-05-24T02:54:32;100412.59;;;15.44;71.03
5522;BME280;2783;48.730;8.006;2023-05-24T02:56:58;100414.31;;;15.45;72.17
5522;BME280;2783;48.730;8.006;2023-05-24T02:59:23;100418.09;;;15.41;70.59
5522;BME280;2783;48.730;8.006;2023-05-24T03:01:49;100422.84;;;15.35;71.58
5522;BME280;2783;48.730;8.006;2023-05-24T03:04:14;100428.41;;;15.30;70.18
5522;BME280;2783;48.730;8.006;2023-05-24T03:06:40;100417.81;;;15.27;70.77
5522;BME280;2783;48.730;8.006;2023-05-24T03:09:05;100416.88;;;15.28;70.03
5522;BME280;2783;48.730;8.006;2023-05-24T03:11:30;100417.22;;;15.21;70.71
5522;BME280;2783;48.730;8.006;2023-05-24T03:13:56;100417.22;;;15.21;70.41
5522;BME280;2783;48.730;8.006;2023-05-24T03:16:21;100418.97;;;15.22;70.44
5522;BME280;2783;48.730;8.006;2023-05-24T03:18:46;100422.50;;;15.22;69.67
5522;BME280;2783;48.730;8.006;2023-05-24T03:21:14;100420.91;;;15.18;69.42
5522;BME280;2783;48.730;8.006;2023-05-24T03:23:40;100411.13;;;15.17;70.34
5522;BME280;2783;48.730;8.006;2023-05-24T03:26:05;100408.66;;;15.13;69.44
5522;BME280;2783;48.730;8.006;2023-05-24T03:28:31;100398.22;;;15.07;69.34
5522;BME280;2783;48.730;8.006;2023-05-24T03:30:57;100401.13;;;15.02;69.94
5522;BME280;2783;48.730;8.006;2023-05-24T03:33:23;100401.91;;;15.04;70.28
5522;BME280;2783;48.730;8.006;2023-05-24T03:35:48;100405.53;;;15.03;69.88
5522;BME280;2783;48.730;8.006;2023-05-24T03:38:13;100408.22;;;15.03;70.94
5522;BME280;2783;48.730;8.006;2023-05-24T03:40:38;100402.91;;;15.02;70.63
5522;BME280;2783;48.730;8.006;2023-05-24T03:43:04;100399.78;;;14.92;70.22
5522;BME280;2783;48.730;8.006;2023-05-24T03:45:29;100403.06;;;14.79;70.58
5522;BME280;2783;48.730;8.006;2023-05-24T03:47:54;100401.78;;;14.87;70.63
5522;BME280;2783;48.730;8.006;2023-05-24T03:50:20;100400.91;;;14.87;70.34
5522;BME280;2783;48.730;8.006;2023-05-24T03:52:45;100401.66;;;14.90;71.54
5522;BME280;2783;48.730;8.006;2023-05-24T03:55:12;100392.81;;;14.88;71.23
5522;BME280;2783;48.730;8.006;2023-05-24T03:57:38;100391.84;;;14.89;70.85
5522;BME280;2783;48.730;8.006;2023-05-24T04:00:04;100390.66;;;14.96;70.09
5522;BME280;2783;48.730;8.006;2023-05-24T04:02:31;100396.00;;;14.96;70.91
5522;BME280;2783;48.730;8.006;2023-05-24T04:04:56;100389.06;;;14.92;70.66
5522;BME280;2783;48.730;8.006;2023-05-24T04:07:21;100393.47;;;14.93;70.14
5522;BME280;2783;48.730;8.006;2023-05-24T04:09:48;100394.81;;;14.83;70.24
5522;BME280;2783;48.730;8.006;2023-05-24T04:12:13;100396.56;;;14.84;70.46
5522;BME280;2783;48.730;8.006;2023-05-24T04:14:39;100394.66;;;14.86;70.56
5522;BME280;2783;48.730;8.006;2023-05-24T04:17:04;100404.94;;;14.77;70.63
5522;BME280;2783;48.730;8.006;2023-05-24T04:19:30;100412.50;;;14.87;70.27
5522;BME280;2783;48.730;8.006;2023-05-24T04:21:55;100408.13;;;14.85;70.00
5522;BME280;2783;48.730;8.006;2023-05-24T04:24:21;100415.34;;;14.83;70.45
5522;BME280;2783;48.730;8.006;2023-05-24T04:26:46;100417.13;;;14.84;69.69
5522;BME280;2783;48.730;8.006;2023-05-24T04:29:11;100408.72;;;14.91;70.44
5522;BME280;2783;48.730;8.006;2023-05-24T04:31:37;100417.13;;;14.84;69.59
5522;BME280;2783;48.730;8.006;2023-05-24T04:34:02;100416.59;;;14.76;69.65
5522;BME280;2783;48.730;8.006;2023-05-24T04:36:28;100419.25;;;14.76;69.62
5522;BME280;2783;48.730;8.006;2023-05-24T04:38:55;100414.75;;;14.76;68.36
5522;BME280;2783;48.730;8.006;2023-05-24T04:41:21;100415.03;;;14.70;67.63
5522;BME280;2783;48.730;8.006;2023-05-24T04:43:46;100420.06;;;14.58;67.19
5522;BME280;2783;48.730;8.006;2023-05-24T04:46:12;100423.13;;;14.69;68.85
5522;BME280;2783;48.730;8.006;2023-05-24T04:48:37;100419.72;;;14.85;69.73
5522;BME280;2783;48.730;8.006;2023-05-24T04:51:02;100419.66;;;14.87;68.43
5522;BME280;2783;48.730;8.006;2023-05-24T04:53:28;100420.19;;;14.75;68.82
5522;BME280;2783;48.730;8.006;2023-05-24T04:55:53;100430.50;;;14.64;67.70
5522;BME280;2783;48.730;8.006;2023-05-24T04:58:19;100426.84;;;14.65;68.85
5522;BME280;2783;48.730;8.006;2023-05-24T05:00:44;100427.59;;;14.68;68.80
5522;BME280;2783;48.730;8.006;2023-05-24T05:03:09;100432.22;;;14.65;67.42
5522;BME280;2783;48.730;8.006;2023-05-24T05:05:35;100442.75;;;14.69;67.82
5522;BME280;2783;48.730;8.006;2023-05-24T05:08:00;100435.72;;;14.67;67.85
5522;BME280;2783;48.730;8.006;2023-05-24T05:10:26;100452.50;;;14.70;67.56
5522;BME280;2783;48.730;8.006;2023-05-24T05:12:51;100454.81;;;14.79;67.05
5522;BME280;2783;48.730;8.006;2023-05-24T05:15:17;100451.78;;;14.87;66.90
5522;BME280;2783;48.730;8.006;2023-05-24T05:17:42;100458.72;;;14.92;68.55
5522;BME280;2783;48.730;8.006;2023-05-24T05:20:08;100439.53;;;14.81;67.40
5522;BME280;2783;48.730;8.006;2023-05-24T05:22:33;100444.78;;;14.84;68.25
5522;BME280;2783;48.730;8.006;2023-05-24T05:24:58;100450.13;;;14.84;67.29
5522;BME280;2783;48.730;8.006;2023-05-24T05:27:24;100439.66;;;14.78;66.73
5522;BME280;2783;48.730;8.006;2023-05-24T05:29:50;100444.69;;;14.66;67.28
5522;BME280;2783;48.730;8.006;2023-05-24T05:32:15;100443.53;;;14.71;66.43
5522;BME280;2783;48.730;8.006;2023-05-24T05:34:40;100438.31;;;14.68;67.36
5522;BME280;2783;48.730;8.006;2023-05-24T05:37:06;100444.34;;;14.73;67.52
5522;BME280;2783;48.730;8.006;2023-05-24T05:39:31;100455.06;;;14.73;67.16
5522;BME280;2783;48.730;8.006;2023-05-24T05:41:56;100446.88;;;14.76;67.33
5522;BME280;2783;48.730;8.006;2023-05-24T05:44:21;100439.66;;;14.78;67.95
5522;BME280;2783;48.730;8.006;2023-05-24T05:46:47;100452.41;;;14.93;66.96
5522;BME280;2783;48.730;8.006;2023-05-24T05:49:12;100448.09;;;14.89;67.30
5522;BME280;2783;48.730;8.006;2023-05-24T05:51:39;100442.63;;;14.92;67.60
5522;BME280;2783;48.730;8.006;2023-05-24T05:54:04;100452.53;;;14.90;67.59
5522;BME280;2783;48.730;8.006;2023-05-24T05:56:30;100451.94;;;14.84;68.17
5522;BME280;2783;48.730;8.006;2023-05-24T05:58:55;100465.78;;;14.93;68.32
5522;BME280;2783;48.730;8.006;2023-05-24T06:01:20;100457.22;;;14.85;67.67
5522;BME280;2783;48.730;8.006;2023-05-24T06:03:45;100450.00;;;14.87;68.09
5522;BME280;2783;48.730;8.006;2023-05-24T06:06:11;100453.72;;;14.83;68.54
5522;BME280;2783;48.730;8.006;2023-05-24T06:08:36;100457.88;;;14.70;67.55
5522;BME280;2783;48.730;8.006;2023-05-24T06:11:01;100444.22;;;14.76;68.47
5522;BME280;2783;48.730;8.006;2023-05-24T06:13:27;100444.66;;;14.87;69.43
5522;BME280;2783;48.730;8.006;2023-05-24T06:15:53;100451.72;;;14.88;70.14
5522;BME280;2783;48.730;8.006;2023-05-24T06:18:18;100439.69;;;14.98;68.91
5522;BME280;2783;48.730;8.006;2023-05-24T06:20:44;100433.13;;;15.05;69.76
5522;BME280;2783;48.730;8.006;2023-05-24T06:23:10;100440.34;;;15.23;69.71
5522;BME280;2783;48.730;8.006;2023-05-24T06:25:36;100445.03;;;15.18;67.02
5522;BME280;2783;48.730;8.006;2023-05-24T06:28:02;100446.09;;;15.14;67.11
5522;BME280;2783;48.730;8.006;2023-05-24T06:30:27;100448.38;;;15.23;67.12
5522;BME280;2783;48.730;8.006;2023-05-24T06:32:53;100413.69;;;15.00;67.67
5522;BME280;2783;48.730;8.006;2023-05-24T06:35:18;100451.88;;;15.25;68.08
5522;BME280;2783;48.730;8.006;2023-05-24T06:37:43;100457.53;;;15.38;66.18
5522;BME280;2783;48.730;8.006;2023-05-24T06:40:09;100461.22;;;15.55;65.98
5522;BME280;2783;48.730;8.006;2023-05-24T06:42:34;100458.06;;;15.66;67.03
5522;BME280;2783;48.730;8.006;2023-05-24T06:45:00;100454.44;;;15.67;66.34
5522;BME280;2783;48.730;8.006;2023-05-24T06:47:26;100458.78;;;15.69;65.25
5522;BME280;2783;48.730;8.006;2023-05-24T06:49:51;100460.38;;;15.73;64.33
5522;BME280;2783;48.730;8.006;2023-05-24T06:52:17;100467.06;;;15.83;65.94
5522;BME280;2783;48.730;8.006;2023-05-24T06:54:42;100472.06;;;16.10;64.23
5522;BME280;2783;48.730;8.006;2023-05-24T06:57:07;100474.00;;;16.25;64.06
5522;BME280;2783;48.730;8.006;2023-05-24T06:59:33;100475.97;;;16.75;63.86
5522;BME280;2783;48.730;8.006;2023-05-24T07:01:58;100484.75;;;16.96;61.50
5522;BME280;2783;48.730;8.006;2023-05-24T07:04:23;100482.63;;;17.20;61.06
5522;BME280;2783;48.730;8.006;2023-05-24T07:06:49;100496.00;;;17.21;60.64
5522;BME280;2783;48.730;8.006;2023-05-24T07:09:15;100500.25;;;17.25;59.71
5522;BME280;2783;48.730;8.006;2023-05-24T07:11:41;100494.63;;;16.95;58.71
5522;BME280;2783;48.730;8.006;2023-05-24T07:14:06;100504.22;;;17.01;60.11
5522;BME280;2783;48.730;8.006;2023-05-24T07:16:31;100516.88;;;17.16;61.30
5522;BME280;2783;48.730;8.006;2023-05-24T07:18:56;100506.09;;;17.33;60.28
5522;BME280;2783;48.730;8.006;2023-05-24T07:21:22;100508.41;;;17.24;59.33
5522;BME280;2783;48.730;8.006;2023-05-24T07:23:48;100514.09;;;17.00;56.99
5522;BME280;2783;48.730;8.006;2023-05-24T07:26:13;100516.69;;;17.02;59.31
5522;BME280;2783;48.730;8.006;2023-05-24T07:28:39;100517.72;;;16.99;58.67
5522;BME280;2783;48.730;8.006;2023-05-24T07:31:05;100525.75;;;16.82;59.92
5522;BME280;2783;48.730;8.006;2023-05-24T07:33:32;100519.38;;;16.85;60.23
5522;BME280;2783;48.730;8.006;2023-05-24T07:35:57;100526.09;;;16.58;60.09
5522;BME280;2783;48.730;8.006;2023-05-24T07:38:22;100536.50;;;16.47;60.65
5522;BME280;2783;48.730;8.006;2023-05-24T07:40:47;100538.16;;;16.31;61.87
5522;BME280;2783;48.730;8.006;2023-05-24T07:43:13;100535.75;;;16.25;61.25
5522;BME280;2783;48.730;8.006;2023-05-24T07:45:38;100534.69;;;16.29;62.27
5522;BME280;2783;48.730;8.006;2023-05-24T07:48:03;100539.72;;;16.16;61.53
5522;BME280;2783;48.730;8.006;2023-05-24T07:50:29;100534.38;;;16.35;62.13
5522;BME280;2783;48.730;8.006;2023-05-24T07:52:57;100532.06;;;16.27;61.67
5522;BME280;2783;48.730;8.006;2023-05-24T07:55:22;100532.19;;;16.43;60.49
5522;BME280;2783;48.730;8.006;2023-05-24T07:57:47;100538.88;;;16.53;60.17
5522;BME280;2783;48.730;8.006;2023-05-24T08:00:13;100531.03;;;16.67;59.60
5522;BME280;2783;48.730;8.006;2023-05-24T08:02:39;100543.09;;;16.58;59.47
5522;BME280;2783;48.730;8.006;2023-05-24T08:05:05;100537.00;;;16.55;58.71
5522;BME280;2783;48.730;8.006;2023-05-24T08:07:30;100538.47;;;16.62;59.75
5522;BME280;2783;48.730;8.006;2023-05-24T08:09:55;100537.44;;;16.46;58.80
5522;BME280;2783;48.730;8.006;2023-05-24T08:12:21;100533.50;;;16.53;60.83
5522;BME280;2783;48.730;8.006;2023-05-24T08:14:46;100542.84;;;16.44;60.35
5522;BME280;2783;48.730;8.006;2023-05-24T08:17:11;100550.34;;;16.56;61.84
5522;BME280;2783;48.730;8.006;2023-05-24T08:19:37;100552.25;;;16.54;60.02
5522;BME280;2783;48.730;8.006;2023-05-24T08:22:02;100552.38;;;16.70;58.86
5522;BME280;2783;48.730;8.006;2023-05-24T08:24:29;100552.53;;;16.67;59.09
5522;BME280;2783;48.730;8.006;2023-05-24T08:26:55;100548.47;;;16.94;59.91
5522;BME280;2783;48.730;8.006;2023-05-24T08:29:21;100554.09;;;17.24;60.44
5522;BME280;2783;48.730;8.006;2023-05-24T08:31:46;100559.88;;;17.33;57.40
5522;BME280;2783;48.730;8.006;2023-05-24T08:34:12;100560.47;;;17.74;56.08
5522;BME280;2783;48.730;8.006;2023-05-24T08:36:37;100558.25;;;17.97;54.29
5522;BME280;2783;48.730;8.006;2023-05-24T08:39:03;100556.41;;;18.30;55.56
5522;BME280;2783;48.730;8.006;2023-05-24T08:41:29;100561.34;;;18.40;55.23
5522;BME280;2783;48.730;8.006;2023-05-24T08:43:57;100559.59;;;18.54;54.25
5522;BME280;2783;48.730;8.006;2023-05-24T08:46:24;100563.47;;;18.80;52.91
5522;BME280;2783;48.730;8.006;2023-05-24T08:48:50;100554.44;;;19.26;54.35
5522;BME280;2783;48.730;8.006;2023-05-24T08:51:16;100562.81;;;19.37;50.16
5522;BME280;2783;48.730;8.006;2023-05-24T08:53:43;100554.13;;;19.61;49.74
5522;BME280;2783;48.730;8.006;2023-05-24T08:56:15;100554.16;;;20.04;48.55
5522;BME280;2783;48.730;8.006;2023-05-24T08:58:41;100556.03;;;20.72;49.21
5522;BME280;2783;48.730;8.006;2023-05-24T09:01:07;100552.34;;;21.65;48.54
5522;BME280;2783;48.730;8.006;2023-05-24T09:03:33;100553.88;;;21.69;45.58
5522;BME280;2783;48.730;8.006;2023-05-24T09:06:00;100544.63;;;21.47;44.79
5522;BME280;2783;48.730;8.006;2023-05-24T09:08:26;100556.50;;;21.32;47.46
5522;BME280;2783;48.730;8.006;2023-05-24T09:10:52;100554.50;;;20.94;45.83
5522;BME280;2783;48.730;8.006;2023-05-24T09:13:18;100557.72;;;20.46;46.60
5522;BME280;2783;48.730;8.006;2023-05-24T09:15:44;100549.91;;;20.42;47.66
5522;BME280;2783;48.730;8.006;2023-05-24T09:18:09;100554.88;;;20.21;48.14
5522;BME280;2783;48.730;8.006;2023-05-24T09:20:35;100553.19;;;20.05;47.73
5522;BME280;2783;48.730;8.006;2023-05-24T09:23:00;100555.97;;;19.89;47.24
5522;BME280;2783;48.730;8.006;2023-05-24T09:25:27;100552.53;;;20.15;49.29
5522;BME280;2783;48.730;8.006;2023-05-24T09:27:54;100554.06;;;20.33;48.84
5522;BME280;2783;48.730;8.006;2023-05-24T09:30:20;100562.66;;;20.40;47.49
5522;BME280;2783;48.730;8.006;2023-05-24T09:32:53;100556.38;;;19.83;47.14
5522;BME280;2783;48.730;8.006;2023-05-24T09:35:18;100548.06;;;19.86;46.20
5522;BME280;2783;48.730;8.006;2023-05-24T09:37:43;100544.09;;;19.78;47.76
5522;BME280;2783;48.730;8.006;2023-05-24T09:40:17;100541.16;;;19.52;46.81
5522;BME280;2783;48.730;8.006;2023-05-24T09:42:43;100551.31;;;19.77;46.95
5522;BME280;2783;48.730;8.006;2023-05-24T09:45:09;100539.34;;;19.53;47.28
5522;BME280;2783;48.730;8.006;2023-05-24T09:47:36;100552.91;;;19.22;47.76
5522;BME280;2783;48.730;8.006;2023-05-24T09:50:02;100540.13;;;19.55;47.57
5522;BME280;2783;48.730;8.006;2023-05-24T09:52:28;100548.56;;;20.35;46.74
5522;BME280;2783;48.730;8.006;2023-05-24T09:54:53;100542.50;;;21.25;44.57
5522;BME280;2783;48.730;8.006;2023-05-24T09:57:18;100543.50;;;22.13;44.72
5522;BME280;2783;48.730;8.006;2023-05-24T09:59:50;100549.16;;;22.72;41.47
5522;BME280;2783;48.730;8.006;2023-05-24T10:02:16;100547.47;;;22.94;40.96
5522;BME280;2783;48.730;8.006;2023-05-24T10:04:44;100545.91;;;23.26;40.95
5522;BME280;2783;48.730;8.006;2023-05-24T10:07:09;100555.56;;;22.71;40.65
5522;BME280;2783;48.730;8.006;2023-05-24T10:09:36;100551.63;;;23.11;41.52
5522;BME280;2783;48.730;8.006;2023-05-24T10:12:02;100542.53;;;23.47;39.92
5522;BME280;2783;48.730;8.006;2023-05-24T10:14:31;100546.84;;;23.95;38.77
5522;BME280;2783;48.730;8.006;2023-05-24T10:16:57;100536.50;;;24.11;37.83
5522;BME280;2783;48.730;8.006;2023-05-24T10:19:23;100542.75;;;23.89;38.72
5522;BME280;2783;48.730;8.006;2023-05-24T10:21:49;100545.91;;;24.51;39.85
5522;BME280;2783;48.730;8.006;2023-05-24T10:24:15;100535.28;;;24.26;36.50
5522;BME280;2783;48.730;8.006;2023-05-24T10:26:43;100533.28;;;24.72;38.40
5522;BME280;2783;48.730;8.006;2023-05-24T10:29:15;100537.47;;;24.65;36.93
5522;BME280;2783;48.730;8.006;2023-05-24T10:31:43;100526.97;;;24.72;37.46
5522;BME280;2783;48.730;8.006;2023-05-24T10:34:09;100530.09;;;24.56;36.55
5522;BME280;2783;48.730;8.006;2023-05-24T10:36:36;100530.06;;;24.78;37.54
5522;BME280;2783;48.730;8.006;2023-05-24T10:39:04;100521.75;;;24.80;37.16
5522;BME280;2783;48.730;8.006;2023-05-24T10:41:37;100522.38;;;24.94;36.48
5522;BME280;2783;48.730;8.006;2023-05-24T10:44:02;100525.19;;;25.35;38.19
5522;BME280;2783;48.730;8.006;2023-05-24T10:46:34;100518.22;;;25.42;34.71
5522;BME280;2783;48.730;8.006;2023-05-24T10:48:59;100513.63;;;25.43;35.59
5522;BME280;2783;48.730;8.006;2023-05-24T10:54:16;100516.91;;;25.57;33.63
5522;BME280;2783;48.730;8.006;2023-05-24T10:56:49;100518.44;;;25.71;32.76
5522;BME280;2783;48.730;8.006;2023-05-24T11:01:57;100515.84;;;25.69;33.07
5522;BME280;2783;48.730;8.006;2023-05-24T11:04:23;100503.75;;;25.62;33.26
5522;BME280;2783;48.730;8.006;2023-05-24T11:06:55;100504.66;;;25.72;33.05
5522;BME280;2783;48.730;8.006;2023-05-24T11:09:22;100497.28;;;25.63;34.41
5522;BME280;2783;48.730;8.006;2023-05-24T11:11:48;100492.84;;;26.13;32.15
5522;BME280;2783;48.730;8.006;2023-05-24T11:14:18;100494.91;;;26.21;29.54
5522;BME280;2783;48.730;8.006;2023-05-24T11:16:47;100484.47;;;26.26;30.53
5522;BME280;2783;48.730;8.006;2023-05-24T11:19:16;100485.53;;;26.44;30.06
5522;BME280;2783;48.730;8.006;2023-05-24T11:21:43;100484.22;;;26.48;32.70
5522;BME280;2783;48.730;8.006;2023-05-24T11:24:08;100483.47;;;26.36;29.23
5522;BME280;2783;48.730;8.006;2023-05-24T11:26:34;100474.13;;;25.99;26.84
5522;BME280;2783;48.730;8.006;2023-05-24T11:29:00;100474.63;;;26.14;28.72
5522;BME280;2783;48.730;8.006;2023-05-24T11:31:28;100473.78;;;25.92;29.20
5522;BME280;2783;48.730;8.006;2023-05-24T11:33:53;100470.09;;;26.24;31.91
5522;BME280;2783;48.730;8.006;2023-05-24T11:36:19;100478.88;;;26.27;27.95
5522;BME280;2783;48.730;8.006;2023-05-24T11:38:45;100466.66;;;26.71;29.77
5522;BME280;2783;48.730;8.006;2023-05-24T11:41:11;100477.31;;;26.93;28.36
5522;BME280;2783;48.730;8.006;2023-05-24T11:43:37;100460.06;;;26.73;28.26
5522;BME280;2783;48.730;8.006;2023-05-24T11:46:02;100457.47;;;26.72;30.28
5522;BME280;2783;48.730;8.006;2023-05-24T11:48:27;100455.63;;;26.82;29.55
5522;BME280;2783;48.730;8.006;2023-05-24T11:50:53;100455.75;;;27.09;31.16
5522;BME280;2783;48.730;8.006;2023-05-24T11:53:19;100456.59;;;26.90;28.55
5522;BME280;2783;48.730;8.006;2023-05-24T11:55:47;100456.56;;;26.62;30.06
5522;BME280;2783;48.730;8.006;2023-05-24T12:00:41;100443.69;;;27.21;29.91
5522;BME280;2783;48.730;8.006;2023-05-24T12:03:07;100443.66;;;27.02;29.16
5522;BME280;2783;48.730;8.006;2023-05-24T12:05:33;100456.31;;;27.22;27.52
5522;BME280;2783;48.730;8.006;2023-05-24T12:08:03;100462.97;;;27.39;28.93
5522;BME280;2783;48.730;8.006;2023-05-24T12:10:30;100456.63;;;27.19;27.82
5522;BME280;2783;48.730;8.006;2023-05-24T12:12:56;100444.53;;;27.02;28.22
5522;BME280;2783;48.730;8.006;2023-05-24T12:15:21;100457.75;;;26.78;28.15
5522;BME280;2783;48.730;8.006;2023-05-24T12:17:46;100462.66;;;26.84;27.45
5522;BME280;2783;48.730;8.006;2023-05-24T12:20:15;100461.56;;;26.57;29.53
5522;BME280;2783;48.730;8.006;2023-05-24T12:22:52;100466.41;;;26.34;28.83
5522;BME280;2783;48.730;8.006;2023-05-24T12:25:18;100447.38;;;26.72;30.37
5522;BME280;2783;48.730;8.006;2023-05-24T12:27:45;100455.03;;;26.97;28.34
5522;BME280;2783;48.730;8.006;2023-05-24T12:30:14;100443.97;;;26.80;30.70
5522;BME280;2783;48.730;8.006;2023-05-24T12:32:44;100455.03;;;26.78;28.80
5522;BME280;2783;48.730;8.006;2023-05-24T12:35:11;100441.78;;;26.74;30.84
5522;BME280;2783;48.730;8.006;2023-05-24T12:37:36;100453.41;;;26.17;28.71
5522;BME280;2783;48.730;8.006;2023-05-24T12:40:02;100448.81;;;25.87;28.57
5522;BME280;2783;48.730;8.006;2023-05-24T12:42:29;100450.81;;;26.06;28.99
5522;BME280;2783;48.730;8.006;2023-05-24T12:44:54;100438.28;;;25.53;29.04
5522;BME280;2783;48.730;8.006;2023-05-24T12:47:20;100440.28;;;25.71;30.75
5522;BME280;2783;48.730;8.006;2023-05-24T12:49:45;100433.31;;;25.37;29.52
5522;BME280;2783;48.730;8.006;2023-05-24T12:52:11;100435.09;;;25.48;31.61
5522;BME280;2783;48.730;8.006;2023-05-24T12:54:37;100421.72;;;25.95;29.09
5522;BME280;2783;48.730;8.006;2023-05-24T12:57:02;100423.56;;;26.25;29.70
5522;BME280;2783;48.730;8.006;2023-05-24T12:59:28;100423.41;;;26.17;30.85
5522;BME280;2783;48.730;8.006;2023-05-24T13:01:53;100411.63;;;26.17;29.87
5522;BME280;2783;48.730;8.006;2023-05-24T13:04:19;100416.91;;;26.09;29.17
5522;BME280;2783;48.730;8.006;2023-05-24T13:06:45;100414.28;;;25.67;30.96
5522;BME280;2783;48.730;8.006;2023-05-24T13:09:10;100418.25;;;25.63;32.05
5522;BME280;2783;48.730;8.006;2023-05-24T13:11:36;100412.38;;;25.58;31.06
5522;BME280;2783;48.730;8.006;2023-05-24T13:14:02;100406.63;;;25.91;31.49
5522;BME280;2783;48.730;8.006;2023-05-24T13:16:27;100399.03;;;26.35;32.15
5522;BME280;2783;48.730;8.006;2023-05-24T13:18:52;100391.56;;;26.18;29.79